createdAt,value
2019-01-05T00:02:21.396Z,102762.05
2019-01-05T00:05:10.013Z,102753.33
2019-01-05T00:07:58.114Z,102747.20
2019-01-05T00:10:59.444Z,102744.19
2019-01-05T00:13:50.152Z,102745.92
2019-01-05T00:16:49.055Z,102740.31
2019-01-05T00:19:48.642Z,102740.31
2019-01-05T00:22:41.829Z,102742.52
2019-01-05T00:25:40.300Z,102734.67
2019-01-05T00:28:36.451Z,102736.86
2019-01-05T00:31:31.959Z,102732.95
2019-01-05T00:34:26.104Z,102721.22
2019-01-05T00:37:33.754Z,102714.68
2019-01-05T00:40:26.305Z,102714.26
2019-01-05T00:43:14.165Z,102713.45
2019-01-05T00:46:02.581Z,102710.39
2019-01-05T00:49:02.478Z,102715.20
2019-01-05T00:52:03.020Z,102720.09
2019-01-05T00:55:09.812Z,102710.46
2019-01-05T00:58:02.468Z,102701.67
2019-01-05T01:01:03.853Z,102703.88
2019-01-05T01:04:07.418Z,102707.41
2019-01-05T01:07:02.778Z,102706.14
2019-01-05T01:10:03.976Z,102710.93
2019-01-05T01:13:03.261Z,102709.62
2019-01-05T01:16:04.592Z,102718.82
2019-01-05T01:19:00.222Z,102712.74
2019-01-05T01:21:48.019Z,102728.04
2019-01-05T01:24:40.237Z,102718.86
2019-01-05T01:27:28.171Z,102717.61
2019-01-05T01:30:32.773Z,102719.78
2019-01-05T01:33:35.865Z,102715.80
2019-01-05T01:36:23.628Z,102716.27
2019-01-05T01:39:41.702Z,102715.81
2019-01-05T01:42:31.979Z,102718.47
2019-01-05T01:45:20.633Z,102709.73
2019-01-05T01:48:22.228Z,102712.77
2019-01-05T01:51:02.209Z,102703.17
2019-01-05T01:53:50.330Z,102699.80
2019-01-05T01:56:50.143Z,102685.78
2019-01-05T02:00:01.089Z,102695.76
2019-01-05T02:02:49.786Z,102687.94
2019-01-05T02:05:47.192Z,102685.83
2019-01-05T02:08:56.147Z,102682.30
2019-01-05T02:12:02.424Z,102674.94
2019-01-05T02:15:12.620Z,102670.55
2019-01-05T02:18:13.187Z,102664.88
2019-01-05T02:21:45.411Z,102668.38
2019-01-05T02:25:13.874Z,102657.48
2019-01-05T02:28:29.325Z,102648.32
2019-01-05T02:32:05.594Z,102657.02
2019-01-05T02:35:15.585Z,102659.64
2019-01-05T02:39:02.778Z,102647.40
2019-01-05T02:42:54.100Z,102636.09
2019-01-05T02:46:25.990Z,102630.45
2019-01-05T02:50:00.821Z,102626.05
2019-01-05T02:53:18.729Z,102620.00
2019-01-05T02:57:22.934Z,102605.64
2019-01-05T03:01:10.092Z,102609.12
2019-01-05T03:04:39.938Z,102619.65
2019-01-05T03:08:02.241Z,102612.64
2019-01-05T03:11:33.443Z,102606.52
2019-01-05T03:15:10.156Z,102608.73
2019-01-05T03:18:39.308Z,102597.84
2019-01-05T03:22:02.256Z,102592.61
2019-01-05T03:25:23.560Z,102586.08
2019-01-05T03:28:45.915Z,102582.58
2019-01-05T03:32:30.507Z,102571.26
2019-01-05T03:35:45.969Z,102575.61
2019-01-05T03:38:55.364Z,102570.81
2019-01-05T03:42:29.835Z,102561.23
2019-01-05T03:46:18.559Z,102554.27
2019-01-05T03:49:47.677Z,102553.38
2019-01-05T03:53:12.000Z,102535.05
2019-01-05T03:56:38.761Z,102534.64
2019-01-05T04:00:40.053Z,102538.56
2019-01-05T04:04:29.255Z,102540.35
2019-01-05T04:07:58.202Z,102536.84
2019-01-05T04:11:39.616Z,102539.89
2019-01-05T04:14:59.046Z,102532.50
2019-01-05T04:18:25.975Z,102522.45
2019-01-05T04:21:53.295Z,102515.03
2019-01-05T04:25:40.781Z,102510.24
2019-01-05T04:29:11.720Z,102503.70
2019-01-05T04:32:31.215Z,102489.73
2019-01-05T04:36:00.573Z,102488.41
2019-01-05T04:39:30.587Z,102488.41
2019-01-05T04:42:53.277Z,102490.61
2019-01-05T04:46:29.447Z,102499.78
2019-01-05T04:50:16.281Z,102490.19
2019-01-05T04:53:44.460Z,102483.18
2019-01-05T04:57:24.659Z,102460.91
2019-01-05T05:00:56.272Z,102464.42
2019-01-05T05:04:41.186Z,102467.92
2019-01-05T05:08:23.087Z,102456.13
2019-01-05T05:11:49.043Z,102450.43
2019-01-05T05:15:16.990Z,102457.02
2019-01-05T05:18:33.664Z,102456.13
2019-01-05T05:22:35.855Z,102459.16
2019-01-05T05:26:13.921Z,102464.87
2019-01-05T05:29:57.088Z,102455.70
2019-01-05T05:33:54.309Z,102448.27
2019-01-05T05:37:35.083Z,102441.70
2019-01-05T05:41:31.882Z,102442.16
2019-01-05T05:44:39.968Z,102442.59
2019-01-05T05:48:03.602Z,102447.83
2019-01-05T05:51:21.341Z,102456.12
2019-01-05T05:54:41.929Z,102455.69
2019-01-05T05:58:13.320Z,102452.61
2019-01-05T06:01:57.157Z,102456.98
2019-01-05T06:05:21.223Z,102456.99
2019-01-05T06:09:05.235Z,102456.11
2019-01-05T06:12:34.097Z,102458.72
2019-01-05T06:16:19.486Z,102454.36
2019-01-05T06:20:09.174Z,102455.23
2019-01-05T06:23:37.579Z,102444.29
2019-01-05T06:26:45.031Z,102453.91
2019-01-05T06:30:16.922Z,102453.90
2019-01-05T06:33:41.354Z,102444.70
2019-01-05T06:36:52.432Z,102447.76
2019-01-05T06:40:11.677Z,102452.98
2019-01-05T06:43:45.221Z,102452.53
2019-01-05T06:47:20.082Z,102454.28
2019-01-05T06:50:39.446Z,102462.12
2019-01-05T06:54:13.448Z,102456.01
2019-01-05T06:57:38.177Z,102455.14
2019-01-05T07:01:06.232Z,102452.94
2019-01-05T07:04:28.252Z,102459.48
2019-01-05T07:08:07.991Z,102455.12
2019-01-05T07:11:35.484Z,102463.84
2019-01-05T07:15:06.434Z,102462.95
2019-01-05T07:18:31.232Z,102471.70
2019-01-05T07:21:44.043Z,102478.24
2019-01-05T07:25:24.444Z,102464.67
2019-01-05T07:28:47.781Z,102468.62
2019-01-05T07:32:18.992Z,102469.05
2019-01-05T07:35:36.732Z,102476.45
2019-01-05T07:39:25.146Z,102471.22
2019-01-05T07:42:56.977Z,102484.31
2019-01-05T07:46:33.396Z,102482.13
2019-01-05T07:49:56.655Z,102485.16
2019-01-05T07:53:27.365Z,102488.26
2019-01-05T07:57:21.622Z,102496.13
2019-01-05T08:01:02.860Z,102500.04
2019-01-05T08:04:23.538Z,102496.14
2019-01-05T08:08:04.608Z,102496.11
2019-01-05T08:11:41.325Z,102502.72
2019-01-05T08:15:31.255Z,102505.77
2019-01-05T08:19:07.192Z,102502.28
2019-01-05T08:22:41.671Z,102490.05
2019-01-05T08:25:57.042Z,102486.98
2019-01-05T08:29:30.782Z,102484.35
2019-01-05T08:33:14.515Z,102493.53
2019-01-05T08:37:14.451Z,102490.89
2019-01-05T08:41:01.641Z,102492.18
2019-01-05T08:44:28.301Z,102496.10
2019-01-05T08:47:55.491Z,102504.85
2019-01-05T08:51:24.615Z,102506.59
2019-01-05T08:54:59.294Z,102519.73
2019-01-05T08:58:39.198Z,102519.73
2019-01-05T09:02:21.805Z,102506.61
2019-01-05T09:05:40.208Z,102506.62
2019-01-05T09:08:55.002Z,102507.50
2019-01-05T09:12:33.174Z,102506.62
2019-01-05T09:16:09.432Z,102513.64
2019-01-05T09:19:36.780Z,102513.63
2019-01-05T09:23:16.290Z,102518.47
2019-01-05T09:26:42.409Z,102514.95
2019-01-05T09:30:06.607Z,102520.19
2019-01-05T09:33:18.311Z,102522.83
2019-01-05T09:36:50.080Z,102519.33
2019-01-05T09:40:15.964Z,102518.45
2019-01-05T09:43:46.961Z,102511.90
2019-01-05T09:47:04.468Z,102513.20
2019-01-05T09:50:57.664Z,102509.72
2019-01-05T09:54:25.170Z,102517.16
2019-01-05T09:58:29.919Z,102513.66
2019-01-05T10:02:17.718Z,102518.89
2019-01-05T10:06:00.137Z,102515.41
2019-01-05T10:09:30.124Z,102516.28
2019-01-05T10:12:57.114Z,102510.99
2019-01-05T10:16:39.237Z,102520.20
2019-01-05T10:20:35.593Z,102511.00
2019-01-05T10:23:55.309Z,102512.31
2019-01-05T10:27:07.952Z,102515.81
2019-01-05T10:30:44.893Z,102505.75
2019-01-05T10:34:26.307Z,102495.27
2019-01-05T10:38:20.836Z,102493.98
2019-01-05T10:41:51.274Z,102492.20
2019-01-05T10:45:19.162Z,102491.34
2019-01-05T10:48:50.362Z,102492.20
2019-01-05T10:52:33.393Z,102486.93
2019-01-05T10:55:59.475Z,102489.98
2019-01-05T10:59:42.111Z,102477.75
2019-01-05T11:03:06.863Z,102478.59
2019-01-05T11:06:31.012Z,102473.36
2019-01-05T11:09:49.032Z,102475.95
2019-01-05T11:13:24.133Z,102472.89
2019-01-05T11:17:11.577Z,102460.63
2019-01-05T11:21:10.947Z,102467.19
2019-01-05T11:24:39.404Z,102463.70
2019-01-05T11:28:04.114Z,102463.69
2019-01-05T11:31:37.415Z,102464.58
2019-01-05T11:35:21.525Z,102464.53
2019-01-05T11:38:47.061Z,102467.63
2019-01-05T11:42:10.917Z,102460.59
2019-01-05T11:45:42.239Z,102458.84
2019-01-05T11:49:06.388Z,102459.29
2019-01-05T11:52:59.109Z,102453.16
2019-01-05T11:56:33.898Z,102456.19
2019-01-05T12:00:25.240Z,102456.20
2019-01-05T12:03:54.067Z,102454.89
2019-01-05T12:07:27.870Z,102452.68
2019-01-05T12:10:46.754Z,102440.45
2019-01-05T12:14:27.468Z,102448.75
2019-01-05T12:18:16.315Z,102436.92
2019-01-05T12:22:08.815Z,102437.80
2019-01-05T12:25:31.793Z,102437.41
2019-01-05T12:29:09.292Z,102446.55
2019-01-05T12:32:51.854Z,102436.92
2019-01-05T12:36:16.042Z,102440.40
2019-01-05T12:40:05.467Z,102445.23
2019-01-05T12:43:41.917Z,102440.84
2019-01-05T12:47:29.951Z,102438.24
2019-01-05T12:51:05.747Z,102438.27
2019-01-05T12:54:29.194Z,102438.27
2019-01-05T12:57:50.966Z,102435.66
2019-01-05T13:01:35.866Z,102440.44
2019-01-05T13:05:12.361Z,102441.75
2019-01-05T13:08:30.874Z,102439.52
2019-01-05T13:12:08.976Z,102440.41
2019-01-05T13:15:30.741Z,102434.27
2019-01-05T13:18:57.245Z,102438.21
2019-01-05T13:22:24.949Z,102429.51
2019-01-05T13:26:09.198Z,102431.69
2019-01-05T13:29:42.338Z,102428.63
2019-01-05T13:33:06.596Z,102429.45
2019-01-05T13:36:28.490Z,102440.39
2019-01-05T13:39:59.540Z,102436.05
2019-01-05T13:43:55.461Z,102450.03
2019-01-05T13:47:45.057Z,102446.09
2019-01-05T13:51:33.415Z,102451.35
2019-01-05T13:54:22.108Z,102453.05
2019-01-05T13:57:21.051Z,102457.48
2019-01-05T14:00:05.350Z,102467.92
2019-01-05T14:03:06.853Z,102465.78
2019-01-05T14:05:54.764Z,102467.08
2019-01-05T14:08:43.173Z,102463.63
2019-01-05T14:11:50.781Z,102466.70
2019-01-05T14:14:40.087Z,102463.67
2019-01-05T14:17:28.160Z,102466.31
2019-01-05T14:20:16.200Z,102475.02
2019-01-05T14:23:20.533Z,102478.55
2019-01-05T14:26:15.688Z,102481.59
2019-01-05T14:29:14.483Z,102490.80
2019-01-05T14:32:20.540Z,102491.23
2019-01-05T14:35:12.847Z,102491.28
2019-01-05T14:38:00.381Z,102500.02
2019-01-05T14:40:49.706Z,102496.13
2019-01-05T14:43:37.707Z,102499.61
2019-01-05T14:46:39.280Z,102495.67
2019-01-05T14:49:27.162Z,102496.98
2019-01-05T14:52:16.790Z,102501.83
2019-01-05T14:55:09.253Z,102505.33
2019-01-05T14:58:02.863Z,102513.20
2019-01-05T15:00:51.964Z,102514.05
2019-01-05T15:03:53.309Z,102516.67
2019-01-05T15:06:51.966Z,102510.98
2019-01-05T15:09:50.174Z,102500.52
2019-01-05T15:12:37.942Z,102508.39
2019-01-05T15:15:26.492Z,102512.72
2019-01-05T15:18:33.795Z,102516.67
2019-01-05T15:21:38.806Z,102511.44
2019-01-05T15:24:26.620Z,102509.69
2019-01-05T15:27:24.278Z,102513.62
2019-01-05T15:30:12.056Z,102512.32
2019-01-05T15:33:13.546Z,102509.30
2019-01-05T15:36:02.886Z,102516.72
2019-01-05T15:38:52.141Z,102513.64
2019-01-05T15:41:52.652Z,102510.12
2019-01-05T15:44:41.994Z,102511.02
2019-01-05T15:47:43.552Z,102511.92
2019-01-05T15:50:50.973Z,102511.89
2019-01-05T15:53:49.172Z,102516.72
2019-01-05T15:56:36.910Z,102521.55
2019-01-05T15:59:37.479Z,102515.86
2019-01-05T16:02:29.938Z,102521.09
2019-01-05T16:05:18.463Z,102524.19
2019-01-05T16:08:14.271Z,102520.23
2019-01-05T16:11:21.816Z,102533.83
2019-01-05T16:14:16.871Z,102537.30
2019-01-05T16:17:18.688Z,102537.29
2019-01-05T16:20:06.531Z,102538.17
2019-01-05T16:22:55.903Z,102536.45
2019-01-05T16:25:47.093Z,102534.27
2019-01-05T16:28:44.149Z,102539.09
2019-01-05T16:31:32.353Z,102537.77
2019-01-05T16:34:32.662Z,102544.77
2019-01-05T16:37:40.461Z,102544.30
2019-01-05T16:40:32.578Z,102532.50
2019-01-05T16:43:34.048Z,102538.63
2019-01-05T16:46:26.480Z,102533.82
2019-01-05T16:49:14.250Z,102542.56
2019-01-05T16:52:07.509Z,102542.56
2019-01-05T16:55:11.832Z,102550.45
2019-01-05T16:58:01.060Z,102540.82
2019-01-05T17:00:53.294Z,102550.45
2019-01-05T17:03:42.740Z,102547.81
2019-01-05T17:06:50.032Z,102554.80
2019-01-05T17:09:51.195Z,102550.88
2019-01-05T17:12:52.409Z,102553.07
2019-01-05T17:15:56.870Z,102551.77
2019-01-05T17:18:39.261Z,102551.77
2019-01-05T17:21:40.513Z,102548.72
2019-01-05T17:24:41.936Z,102546.95
2019-01-05T17:27:34.075Z,102556.12
2019-01-05T17:30:26.840Z,102553.08
2019-01-05T17:33:14.603Z,102541.28
2019-01-05T17:36:00.882Z,102547.84
2019-01-05T17:38:48.885Z,102550.45
2019-01-05T17:41:37.734Z,102545.64
2019-01-05T17:44:25.700Z,102548.27
2019-01-05T17:47:13.317Z,102553.93
2019-01-05T17:50:15.075Z,102553.50
2019-01-05T17:53:19.760Z,102549.57
2019-01-05T17:56:07.353Z,102545.20
2019-01-05T17:59:04.893Z,102541.70
2019-01-05T18:01:50.532Z,102547.83
2019-01-05T18:04:55.098Z,102544.78
2019-01-05T18:07:42.845Z,102539.08
2019-01-05T18:10:33.030Z,102549.13
2019-01-05T18:13:16.826Z,102547.82
2019-01-05T18:16:09.125Z,102543.89
2019-01-05T18:18:49.718Z,102550.02
2019-01-05T18:21:42.268Z,102547.84
2019-01-05T18:24:25.818Z,102544.76
2019-01-05T18:27:13.585Z,102536.47
2019-01-05T18:30:02.870Z,102546.95
2019-01-05T18:32:57.995Z,102550.00
2019-01-05T18:35:45.935Z,102552.20
2019-01-05T18:38:35.251Z,102548.70
2019-01-05T18:41:23.378Z,102557.88
2019-01-05T18:44:24.582Z,102548.27
2019-01-05T18:47:13.967Z,102548.27
2019-01-05T18:50:03.512Z,102545.22
2019-01-05T18:52:51.324Z,102550.00
2019-01-05T18:55:39.389Z,102545.65
2019-01-05T18:58:31.511Z,102541.29
2019-01-05T19:01:18.012Z,102543.91
2019-01-05T19:04:05.766Z,102540.83
2019-01-05T19:06:57.831Z,102545.66
2019-01-05T19:09:56.089Z,102546.96
2019-01-05T19:13:03.605Z,102546.08
2019-01-05T19:15:55.709Z,102548.28
2019-01-05T19:19:00.173Z,102543.03
2019-01-05T19:21:49.299Z,102541.27
2019-01-05T19:24:37.465Z,102546.08
2019-01-05T19:27:26.017Z,102547.81
2019-01-05T19:30:07.945Z,102553.95
2019-01-05T19:32:57.376Z,102546.08
2019-01-05T19:35:50.293Z,102543.46
2019-01-05T19:38:48.526Z,102546.97
2019-01-05T19:41:46.009Z,102550.90
2019-01-05T19:44:50.356Z,102547.39
2019-01-05T19:47:38.049Z,102555.25
2019-01-05T19:50:33.885Z,102554.83
2019-01-05T19:53:21.496Z,102567.05
2019-01-05T19:56:17.022Z,102560.92
2019-01-05T19:59:15.396Z,102564.42
2019-01-05T20:02:11.022Z,102572.29
2019-01-05T20:04:59.113Z,102564.00
2019-01-05T20:08:03.550Z,102570.55
2019-01-05T20:10:51.025Z,102562.69
2019-01-05T20:13:39.421Z,102566.19
2019-01-05T20:16:34.943Z,102564.88
2019-01-05T20:19:27.058Z,102568.81
2019-01-05T20:22:15.111Z,102571.86
2019-01-05T20:25:04.421Z,102571.44
2019-01-05T20:27:56.584Z,102564.00
2019-01-05T20:30:43.559Z,102563.56
2019-01-05T20:33:31.554Z,102567.93
2019-01-05T20:36:26.851Z,102573.59
2019-01-05T20:39:14.552Z,102576.67
2019-01-05T20:42:09.663Z,102581.03
2019-01-05T20:45:02.085Z,102581.03
2019-01-05T20:47:57.155Z,102577.53
2019-01-05T20:50:54.345Z,102586.70
2019-01-05T20:53:42.935Z,102586.28
2019-01-05T20:56:29.489Z,102591.09
2019-01-05T20:59:22.120Z,102590.20
2019-01-05T21:02:13.999Z,102591.52
2019-01-05T21:05:04.890Z,102588.01
2019-01-05T21:08:13.377Z,102592.40
2019-01-05T21:11:01.280Z,102592.83
2019-01-05T21:13:50.852Z,102594.13
2019-01-05T21:16:44.686Z,102586.27
2019-01-05T21:19:32.663Z,102594.56
2019-01-05T21:22:24.753Z,102602.00
2019-01-05T21:25:32.369Z,102595.87
2019-01-05T21:28:30.850Z,102602.89
2019-01-05T21:31:32.011Z,102584.96
2019-01-05T21:34:36.818Z,102580.14
2019-01-05T21:37:28.860Z,102576.67
2019-01-05T21:40:30.301Z,102582.34
2019-01-05T21:43:22.564Z,102573.17
2019-01-05T21:46:10.344Z,102588.90
2019-01-05T21:49:09.484Z,102581.92
2019-01-05T21:51:58.942Z,102570.55
2019-01-05T21:55:03.765Z,102564.00
2019-01-05T21:57:51.792Z,102556.56
2019-01-05T22:00:53.218Z,102557.45
2019-01-05T22:03:44.437Z,102563.54
2019-01-05T22:06:32.334Z,102562.69
2019-01-05T22:09:21.671Z,102565.73
2019-01-05T22:12:02.261Z,102565.73
2019-01-05T22:15:03.870Z,102574.48
2019-01-05T22:17:51.670Z,102576.67
2019-01-05T22:20:42.767Z,102577.53
2019-01-05T22:23:32.054Z,102577.09
2019-01-05T22:26:30.618Z,102575.78
2019-01-05T22:29:18.351Z,102575.36
2019-01-05T22:32:06.343Z,102570.55
2019-01-05T22:34:58.785Z,102571.84
2019-01-05T22:37:57.377Z,102567.48
2019-01-05T22:40:44.745Z,102569.66
2019-01-05T22:43:32.753Z,102571.42
2019-01-05T22:46:19.509Z,102570.12
2019-01-05T22:49:15.332Z,102571.42
2019-01-05T22:52:06.827Z,102571.85
2019-01-05T22:54:56.160Z,102569.69
2019-01-05T22:57:48.509Z,102572.73
2019-01-05T23:00:36.472Z,102571.86
2019-01-05T23:03:24.717Z,102571.85
2019-01-05T23:06:23.825Z,102564.44
2019-01-05T23:09:31.419Z,102571.42
2019-01-05T23:12:18.866Z,102559.63
2019-01-05T23:15:11.448Z,102559.17
2019-01-05T23:18:03.647Z,102563.14
2019-01-05T23:20:51.871Z,102560.06
2019-01-05T23:23:42.342Z,102575.36
2019-01-05T23:26:37.493Z,102565.30
2019-01-05T23:29:29.645Z,102581.45
2019-01-05T23:32:27.895Z,102569.66
2019-01-05T23:35:26.245Z,102576.67
2019-01-05T23:38:27.599Z,102578.41
2019-01-05T23:41:15.620Z,102584.11
2019-01-05T23:44:13.821Z,102579.72
2019-01-05T23:47:05.494Z,102573.17
2019-01-05T23:50:00.321Z,102576.22
2019-01-05T23:52:59.695Z,102585.39
2019-01-05T23:55:58.166Z,102586.70
2019-01-05T23:59:14.129Z,102589.34
